Time;durP1;ratioP1;P1;durP2;ratioP2;P2;SDS_P1;SDS_P2;PMS_P1;PMS_P2;Temp;Humidity;BMP_temperature;BMP_pressure;BME280_temperature;BME280_humidity;BME280_pressure;Samples;Min_cycle;Max_cycle;Signal;HPM_P1;HPM_P2
2021/05/15 00:00:13;;;;;;;0.70;0.60;;;;;;;9.10;79.24;96266.75;4979359;28;20046;-63
2021/05/15 00:02:39;;;;;;;4.45;0.70;;;;;;;9.14;80.01;96266.81;4984229;28;20487;-64
2021/05/15 00:05:07;;;;;;;0.90;0.70;;;;;;;9.12;79.38;96264.44;4980788;28;20069;-64
2021/05/15 00:07:33;;;;;;;0.70;0.60;;;;;;;9.07;78.99;96267.47;4984315;28;20042;-63
2021/05/15 00:09:58;;;;;;;1.60;0.73;;;;;;;9.03;78.75;96263.91;4984835;28;20064;-63
2021/05/15 00:12:24;;;;;;;2.80;0.80;;;;;;;8.91;79.80;96261.38;4978203;28;20039;-62
2021/05/15 00:14:51;;;;;;;2.15;0.90;;;;;;;8.93;80.49;96264.53;4984412;28;20053;-64
2021/05/15 00:17:16;;;;;;;1.83;0.60;;;;;;;8.96;80.08;96259.13;4978707;28;20046;-63
2021/05/15 00:19:42;;;;;;;0.50;0.50;;;;;;;9.14;79.55;96264.84;4982218;28;20399;-61
2021/05/15 00:22:07;;;;;;;0.85;0.65;;;;;;;9.16;78.17;96265.28;4978657;28;20053;-63
2021/05/15 00:24:32;;;;;;;3.10;0.70;;;;;;;9.07;79.27;96262.00;4982585;28;20046;-63
2021/05/15 00:26:58;;;;;;;0.77;0.60;;;;;;;9.03;79.15;96268.59;4984255;28;20096;-63
2021/05/15 00:29:23;;;;;;;1.85;0.57;;;;;;;9.08;79.44;96262.81;4977935;28;20674;-65
2021/05/15 00:31:49;;;;;;;2.08;0.65;;;;;;;9.22;78.10;96267.69;4985099;28;20125;-63
2021/05/15 00:34:14;;;;;;;1.52;0.80;;;;;;;9.33;77.04;96263.19;4989859;28;20078;-62
2021/05/15 00:36:40;;;;;;;2.40;0.60;;;;;;;9.37;76.91;96261.28;4985562;28;20108;-63
2021/05/15 00:39:06;;;;;;;1.17;0.65;;;;;;;9.43;76.96;96262.53;4979281;28;20084;-61
2021/05/15 00:41:32;;;;;;;1.55;0.77;;;;;;;9.46;76.54;96258.28;4983014;28;20046;-63
2021/05/15 00:46:49;;;;;;;0.68;0.60;;;;;;;9.50;75.42;96254.41;4998382;28;20506;-62
2021/05/15 00:49:14;;;;;;;0.82;0.60;;;;;;;9.52;75.60;96246.63;4991808;28;20046;-63
2021/05/15 00:51:41;;;;;;;0.60;0.50;;;;;;;9.54;75.48;96240.81;5003944;28;20053;-64
2021/05/15 00:54:10;;;;;;;1.10;0.70;;;;;;;9.51;75.57;96245.06;4996299;28;20045;-64
2021/05/15 00:56:36;;;;;;;0.77;0.70;;;;;;;9.41;76.22;96248.44;5002205;28;20046;-64
2021/05/15 00:59:02;;;;;;;1.42;0.70;;;;;;;9.22;77.59;96252.09;5001441;28;20391;-63
2021/05/15 01:01:28;;;;;;;1.15;0.60;;;;;;;9.11;78.66;96246.47;4980240;28;20041;-63
2021/05/15 01:03:54;;;;;;;9.52;5.00;;;;;;;9.22;78.43;96241.16;5002197;28;20100;-63
2021/05/15 01:06:20;;;;;;;3.05;1.63;;;;;;;9.23;78.75;96240.00;4998078;28;20062;-64
2021/05/15 01:08:46;;;;;;;6.82;2.95;;;;;;;9.23;78.79;96240.00;5001134;28;20046;-61
2021/05/15 01:11:13;;;;;;;2.08;1.00;;;;;;;9.16;79.24;96237.97;4996949;28;20061;-62
2021/05/15 01:13:39;;;;;;;1.75;0.77;;;;;;;9.25;78.05;96232.22;5001279;28;20056;-63
2021/05/15 01:16:05;;;;;;;1.35;0.70;;;;;;;9.24;77.57;96233.38;4989603;28;20046;-60
2021/05/15 01:18:31;;;;;;;1.35;0.77;;;;;;;9.11;77.23;96229.28;4976424;28;20396;-63
2021/05/15 01:21:01;;;;;;;0.70;0.60;;;;;;;8.82;79.44;96237.03;4996559;28;20039;-64
2021/05/15 01:23:26;;;;;;;0.60;0.60;;;;;;;8.61;80.65;96246.47;4993742;28;20038;-63
2021/05/15 01:25:51;;;;;;;1.95;0.73;;;;;;;8.42;81.53;96243.81;5002198;28;20048;-63
2021/05/15 01:28:17;;;;;;;0.80;0.60;;;;;;;8.42;82.25;96247.31;4993609;28;20077;-63
2021/05/15 01:30:43;;;;;;;3.28;0.60;;;;;;;8.33;81.79;96245.97;5001839;28;20446;-63
2021/05/15 01:33:08;;;;;;;0.90;0.50;;;;;;;8.23;82.55;96239.16;4996596;28;20072;-63
2021/05/15 01:35:34;;;;;;;2.75;0.70;;;;;;;8.31;81.80;96240.09;4992216;28;20054;-62
2021/05/15 01:37:59;;;;;;;2.90;0.88;;;;;;;8.31;81.97;96246.31;5002034;28;20041;-62
2021/05/15 01:40:25;;;;;;;1.40;0.82;;;;;;;8.23;81.35;96239.94;4996975;28;20124;-63
2021/05/15 01:42:50;;;;;;;0.75;0.70;;;;;;;8.13;81.54;96246.00;5018091;28;20049;-62
2021/05/15 01:45:16;;;;;;;1.08;0.93;;;;;;;8.13;81.64;96246.00;4995943;28;20042;-63
2021/05/15 01:47:41;;;;;;;2.15;0.70;;;;;;;8.05;82.19;96244.31;5002275;28;20042;-64
2021/05/15 01:50:08;;;;;;;1.67;0.82;;;;;;;7.99;82.81;96248.44;4995396;28;20118;-62
2021/05/15 01:52:34;;;;;;;1.55;0.60;;;;;;;7.90;83.77;96248.66;5001352;28;20507;-62
2021/05/15 01:55:00;;;;;;;2.65;0.70;;;;;;;7.73;83.96;96251.84;5002122;28;20045;-63
2021/05/15 01:57:26;;;;;;;4.22;1.77;;;;;;;7.56;83.39;96250.31;4996854;28;20491;-63
2021/05/15 01:59:51;;;;;;;0.65;0.60;;;;;;;7.68;83.52;96239.28;5005553;28;20042;-63
2021/05/15 02:02:17;;;;;;;1.65;0.90;;;;;;;7.68;82.84;96243.97;4997720;28;20037;-62
2021/05/15 02:04:42;;;;;;;1.42;0.70;;;;;;;7.82;81.83;96234.13;4999663;28;20133;-64
2021/05/15 02:07:07;;;;;;;1.00;0.88;;;;;;;7.81;81.18;96232.56;4990304;28;20065;-64
2021/05/15 02:09:33;;;;;;;1.60;0.68;;;;;;;7.41;83.38;96235.63;5000210;28;20137;-62
2021/05/15 02:11:58;;;;;;;1.13;0.90;;;;;;;6.89;86.85;96232.16;5005507;28;20569;-63
2021/05/15 02:14:24;;;;;;;1.00;0.70;;;;;;;6.67;87.47;96233.59;4979779;28;20050;-63
2021/05/15 02:16:49;;;;;;;1.08;0.80;;;;;;;6.58;88.10;96241.91;5002165;28;20038;-63
2021/05/15 02:19:14;;;;;;;3.22;1.05;;;;;;;6.48;89.24;96231.56;4994296;28;20046;-64
2021/05/15 02:21:40;;;;;;;1.45;0.90;;;;;;;6.42;88.72;96228.31;4993920;28;20046;-64
2021/05/15 02:24:07;;;;;;;2.45;0.90;;;;;;;6.43;88.73;96219.03;4995563;28;20069;-62
2021/05/15 02:26:32;;;;;;;1.10;0.90;;;;;;;6.53;89.34;96222.34;4986351;28;20045;-63
2021/05/15 02:28:58;;;;;;;3.50;0.98;;;;;;;6.59;88.43;96224.47;4977783;28;20045;-63
2021/05/15 02:31:23;;;;;;;1.17;1.00;;;;;;;6.43;88.98;96218.25;4957422;28;20105;-63
2021/05/15 02:33:48;;;;;;;0.85;0.80;;;;;;;6.28;89.06;96217.09;4976301;28;20048;-64
2021/05/15 02:36:14;;;;;;;1.38;1.00;;;;;;;6.02;91.56;96201.28;4956903;28;20049;-63
2021/05/15 02:38:39;;;;;;;3.00;1.08;;;;;;;5.91;92.08;96209.13;4979779;28;20500;-63
2021/05/15 02:41:05;;;;;;;1.30;0.90;;;;;;;5.97;92.18;96206.97;4972594;28;20058;-61
2021/05/15 02:43:30;;;;;;;1.33;1.10;;;;;;;6.12;92.63;96203.47;4980019;28;20081;-63
2021/05/15 02:45:56;;;;;;;1.52;1.02;;;;;;;6.16;91.51;96206.28;4966785;28;20165;-63
2021/05/15 02:48:21;;;;;;;4.78;1.30;;;;;;;6.09;91.08;96196.81;4956141;28;20050;-65
2021/05/15 02:50:51;;;;;;;1.77;1.20;;;;;;;6.06;90.99;96202.94;4961303;28;20523;-63
2021/05/15 02:53:18;;;;;;;2.63;1.70;;;;;;;6.03;91.18;96195.50;4955703;28;20046;-64
2021/05/15 02:55:44;;;;;;;10.73;4.70;;;;;;;5.83;90.80;96191.03;4962072;28;20773;-64
2021/05/15 02:58:11;;;;;;;2.58;1.60;;;;;;;5.69;92.45;96192.25;4971748;28;20420;-64
2021/05/15 03:00:37;;;;;;;1.60;1.17;;;;;;;5.54;93.31;96199.19;4980827;28;20100;-63
2021/05/15 03:03:03;;;;;;;1.75;1.27;;;;;;;5.41;93.54;96186.81;4976651;28;20566;-61
2021/05/15 03:05:30;;;;;;;1.17;1.00;;;;;;;5.40;94.13;96193.38;4980609;28;20103;-63
2021/05/15 03:07:56;;;;;;;2.53;1.30;;;;;;;5.40;94.39;96181.72;4979591;28;20097;-63
2021/05/15 03:10:24;;;;;;;1.40;1.20;;;;;;;5.39;94.13;96174.72;4973531;28;20057;-64
2021/05/15 03:12:55;;;;;;;2.15;1.30;;;;;;;5.34;93.60;96184.69;4977864;28;20038;-64
2021/05/15 03:15:21;;;;;;;1.73;1.30;;;;;;;5.31;93.22;96185.38;4974988;28;20050;-65
2021/05/15 03:17:46;;;;;;;1.40;1.15;;;;;;;5.28;93.18;96175.22;4980997;28;20709;-63
2021/05/15 03:20:19;;;;;;;1.23;1.13;;;;;;;5.23;93.43;96170.03;4994440;28;20050;-63
2021/05/15 03:22:45;;;;;;;1.48;1.17;;;;;;;5.01;94.34;96176.75;5005684;28;20113;-62
2021/05/15 03:25:12;;;;;;;2.30;1.25;;;;;;;4.87;94.61;96168.19;4998672;28;20078;-61
2021/05/15 03:27:37;;;;;;;1.35;1.13;;;;;;;4.73;95.17;96172.03;5002484;28;20038;-60
2021/05/15 03:30:05;;;;;;;2.17;1.27;;;;;;;4.69;95.91;96170.38;4979256;28;20061;-68
2021/05/15 03:32:31;;;;;;;2.45;1.35;;;;;;;4.70;97.00;96167.31;4987546;28;20052;-63
2021/05/15 03:34:56;;;;;;;2.90;1.38;;;;;;;4.77;97.13;96166.72;4988418;28;20110;-64
2021/05/15 03:37:21;;;;;;;1.77;1.58;;;;;;;4.84;97.46;96166.16;4987160;28;21193;-64
2021/05/15 03:39:47;;;;;;;1.52;1.23;;;;;;;4.83;96.78;96178.16;4983381;28;20073;-62
2021/05/15 03:42:12;;;;;;;2.80;2.00;;;;;;;4.85;96.72;96173.19;4974432;28;20839;-58
2021/05/15 03:44:38;;;;;;;1.73;1.63;;;;;;;4.84;96.71;96177.00;4979876;28;20058;-59
2021/05/15 03:47:03;;;;;;;1.95;1.40;;;;;;;4.86;96.19;96172.84;4978162;28;20061;-67
2021/05/15 03:49:29;;;;;;;4.95;1.35;;;;;;;5.08;96.58;96176.19;4977758;28;20396;-61
2021/05/15 03:51:54;;;;;;;2.13;1.60;;;;;;;5.08;95.46;96176.19;4983124;28;20120;-61
2021/05/15 03:54:20;;;;;;;3.05;1.73;;;;;;;5.15;95.15;96170.97;4975598;28;20472;-62
2021/05/15 03:56:45;;;;;;;1.67;1.30;;;;;;;5.31;95.21;96168.28;4981173;28;20591;-60
2021/05/15 03:59:11;;;;;;;4.65;1.60;;;;;;;5.44;94.29;96166.31;4974009;28;20049;-63
2021/05/15 04:01:36;;;;;;;2.15;1.30;;;;;;;5.43;93.29;96168.25;4983711;28;20053;-64
2021/05/15 04:04:02;;;;;;;3.47;1.30;;;;;;;5.63;92.27;96171.88;4982734;28;20512;-68
2021/05/15 04:06:27;;;;;;;2.03;1.30;;;;;;;5.72;91.52;96169.78;4979497;28;20100;-60
2021/05/15 04:08:52;;;;;;;2.22;1.40;;;;;;;5.71;91.02;96170.16;4983325;28;20042;-60
2021/05/15 04:11:18;;;;;;;3.92;1.60;;;;;;;5.67;89.96;96166.53;4978040;28;20048;-60
2021/05/15 04:13:54;;;;;;;2.17;1.30;;;;;;;5.38;89.83;96173.91;4981390;28;20492;-62
2021/05/15 04:16:32;;;;;;;2.53;1.33;;;;;;;5.25;90.38;96166.97;4976957;28;20042;-60
2021/05/15 04:18:58;;;;;;;6.57;1.70;;;;;;;5.14;92.71;96169.38;4976168;28;20396;-60
2021/05/15 04:21:23;;;;;;;2.33;1.50;;;;;;;4.67;95.42;96161.78;4978712;28;20076;-60
2021/05/15 04:23:49;;;;;;;2.25;1.60;;;;;;;4.53;96.37;96151.28;4979708;28;20093;-62
2021/05/15 04:26:15;;;;;;;2.72;2.10;;;;;;;4.60;97.67;96154.22;4978081;28;20046;-55
2021/05/15 04:28:41;;;;;;;2.67;2.13;;;;;;;4.56;96.58;96154.09;4978011;28;20084;-61
2021/05/15 04:31:06;;;;;;;4.32;2.20;;;;;;;4.66;97.35;96146.63;4978707;28;20139;-57
2021/05/15 04:33:32;;;;;;;3.50;2.22;;;;;;;4.73;97.57;96157.69;4981343;28;20312;-59
2021/05/15 04:35:57;;;;;;;2.45;1.90;;;;;;;4.83;97.14;96149.09;4982445;28;20046;-63
2021/05/15 04:38:23;;;;;;;2.28;1.80;;;;;;;5.05;96.52;96153.22;4976988;28;20642;-59
2021/05/15 04:40:49;;;;;;;2.92;1.77;;;;;;;5.32;96.01;96159.03;4983273;28;20555;-60
2021/05/15 04:43:15;;;;;;;2.45;1.58;;;;;;;5.43;93.07;96159.31;4972913;28;20038;-60
2021/05/15 04:45:42;;;;;;;4.50;1.40;;;;;;;5.65;92.98;96156.03;4983101;28;20113;-60
2021/05/15 04:48:08;;;;;;;2.55;1.50;;;;;;;5.98;91.99;96163.13;4977107;28;20047;-60
2021/05/15 04:50:33;;;;;;;2.67;1.40;;;;;;;6.38;88.74;96172.25;4982672;28;20050;-64
2021/05/15 04:52:59;;;;;;;8.15;2.15;;;;;;;6.70;86.45;96173.78;4981284;28;20530;-63
2021/05/15 04:55:24;;;;;;;4.55;2.22;;;;;;;6.75;86.75;96178.16;4974282;28;20054;-61
2021/05/15 04:57:49;;;;;;;2.72;1.58;;;;;;;7.03;85.97;96169.84;4980955;28;20070;-63
2021/05/15 05:00:15;;;;;;;1.52;1.20;;;;;;;7.04;83.65;96163.25;4976245;28;20057;-62
2021/05/15 05:02:41;;;;;;;1.88;1.13;;;;;;;7.03;84.34;96163.63;4981515;28;20129;-59
2021/05/15 05:05:07;;;;;;;2.30;0.98;;;;;;;7.73;84.00;96159.16;4978763;28;20053;-67
2021/05/15 05:07:33;;;;;;;1.90;1.00;;;;;;;10.69;72.89;96157.16;4983939;28;20047;-61
2021/05/15 05:09:59;;;;;;;2.85;1.10;;;;;;;10.87;66.82;96166.28;4982846;28;20113;-64
2021/05/15 05:12:24;;;;;;;3.92;1.40;;;;;;;8.66;76.28;96163.50;4972232;28;20176;-61
2021/05/15 05:14:49;;;;;;;1.60;0.98;;;;;;;9.92;74.46;96157.66;4975092;28;20081;-60
2021/05/15 05:17:15;;;;;;;2.60;1.00;;;;;;;12.04;65.68;96153.47;4977246;28;20112;-62
2021/05/15 05:19:40;;;;;;;1.33;0.60;;;;;;;11.88;64.03;96158.50;4981258;28;20061;-62
2021/05/15 05:22:05;;;;;;;1.48;0.82;;;;;;;10.06;70.48;96148.00;4977435;28;20070;-62
2021/05/15 05:24:32;;;;;;;2.85;1.23;;;;;;;10.70;69.10;96154.03;4981173;28;20129;-61
2021/05/15 05:27:00;;;;;;;1.38;0.85;;;;;;;13.47;60.69;96157.31;4973669;28;20039;-60
2021/05/15 05:29:26;;;;;;;1.45;0.63;;;;;;;15.39;54.58;96149.22;4976025;28;20141;-61
2021/05/15 05:31:52;;;;;;;1.95;0.70;;;;;;;13.37;60.17;96145.16;4979585;28;20125;-61
2021/05/15 05:34:19;;;;;;;1.73;0.63;;;;;;;12.93;61.27;96137.41;4974951;28;20078;-61
2021/05/15 05:36:45;;;;;;;2.28;0.60;;;;;;;14.09;57.96;96139.28;4982932;28;20049;-61
2021/05/15 05:39:15;;;;;;;4.43;0.60;;;;;;;15.92;53.42;96142.28;4981428;28;20039;-62
2021/05/15 05:41:40;;;;;;;;;;;;;;;15.79;52.39;96138.50;4983934;28;20057;-60
2021/05/15 05:44:06;;;;;;;1.47;0.70;;;;;;;15.64;53.56;96135.09;4972693;28;19922;-62
2021/05/15 05:46:31;;;;;;;1.77;0.60;;;;;;;13.67;59.55;96132.84;4981954;28;20431;-64
2021/05/15 05:48:57;;;;;;;4.63;0.85;;;;;;;12.35;64.74;96120.97;4981045;28;20495;-63
2021/05/15 05:51:23;;;;;;;1.40;0.70;;;;;;;12.04;66.87;96117.00;4976060;28;20904;-61
2021/05/15 05:53:49;;;;;;;1.13;0.70;;;;;;;13.56;63.84;96116.41;4980164;28;20061;-61
2021/05/15 05:56:14;;;;;;;1.73;0.80;;;;;;;13.32;62.68;96120.81;4982456;28;20107;-64
2021/05/15 05:58:43;;;;;;;1.38;0.80;;;;;;;14.38;59.13;96117.06;4996538;28;20073;-63
2021/05/15 06:01:08;;;;;;;4.88;1.35;;;;;;;14.68;59.44;96112.91;4978014;28;20043;-61
2021/05/15 06:03:33;;;;;;;5.28;0.90;;;;;;;16.07;55.00;96106.16;4981823;28;20051;-63
2021/05/15 06:05:59;;;;;;;2.45;0.70;;;;;;;15.89;55.59;96107.19;4982461;28;20407;-61
2021/05/15 06:08:25;;;;;;;3.17;0.98;;;;;;;17.08;52.02;96103.31;4976342;28;20080;-61
2021/05/15 06:10:51;;;;;;;4.72;0.98;;;;;;;17.49;51.85;96102.13;4979793;28;20046;-60
2021/05/15 06:13:18;;;;;;;2.97;0.70;;;;;;;15.23;56.91;96116.66;4974226;28;20050;-59
2021/05/15 06:15:44;;;;;;;1.48;0.90;;;;;;;15.09;59.73;96112.88;4980867;28;20124;-63
2021/05/15 06:18:09;;;;;;;1.23;0.50;;;;;;;17.05;52.50;96112.47;4976360;28;20110;-61
2021/05/15 06:20:35;;;;;;;3.88;0.82;;;;;;;17.12;49.28;96106.00;4981154;28;20043;-62
2021/05/15 06:23:00;;;;;;;0.98;0.50;;;;;;;17.55;46.56;96111.47;4986474;28;20468;-65
2021/05/15 06:25:25;;;;;;;2.15;0.60;;;;;;;17.33;46.34;96108.38;4983189;28;20129;-61
2021/05/15 06:27:51;;;;;;;3.85;0.60;;;;;;;16.98;46.72;96116.16;4980670;28;20045;-62
2021/05/15 06:30:17;;;;;;;1.10;0.65;;;;;;;17.99;45.48;96113.34;4976299;28;20042;-61
2021/05/15 06:32:43;;;;;;;3.42;0.55;;;;;;;17.62;45.03;96110.56;4980086;28;20586;-60
2021/05/15 06:35:09;;;;;;;5.82;0.75;;;;;;;17.82;42.99;96115.28;4975232;28;20044;-63
2021/05/15 06:37:35;;;;;;;0.40;0.40;;;;;;;19.99;38.90;96109.41;4976928;28;20053;-61
2021/05/15 06:40:01;;;;;;;2.58;0.50;;;;;;;21.37;35.96;96112.84;4980339;28;20419;-61
2021/05/15 06:42:26;;;;;;;1.52;0.50;;;;;;;20.77;36.37;96114.50;4975618;28;20042;-60
2021/05/15 06:44:51;;;;;;;0.88;0.50;;;;;;;18.58;39.80;96112.38;4980107;28;20105;-61
2021/05/15 06:47:17;;;;;;;1.30;0.40;;;;;;;18.76;40.30;96111.16;4976299;28;20049;-61
2021/05/15 06:49:43;;;;;;;2.40;1.77;;;;;;;19.77;38.61;96110.06;4980343;28;20120;-62
2021/05/15 06:52:10;;;;;;;0.47;0.45;;;;;;;20.09;37.86;96105.50;4974938;28;20129;-61
2021/05/15 06:54:36;;;;;;;2.00;0.50;;;;;;;20.40;36.71;96099.38;4979750;28;20101;-60
2021/05/15 06:57:01;;;;;;;2.05;0.47;;;;;;;19.73;37.73;96103.00;4978901;28;20046;-59
2021/05/15 06:59:27;;;;;;;6.43;0.60;;;;;;;20.10;37.91;96106.31;4971252;28;20112;-63
2021/05/15 07:01:53;;;;;;;0.50;0.38;;;;;;;19.20;38.02;96106.09;4980364;28;20047;-60
2021/05/15 07:04:18;;;;;;;1.00;0.50;;;;;;;19.79;37.49;96096.50;4973772;28;20088;-60
2021/05/15 07:06:44;;;;;;;2.15;0.50;;;;;;;19.38;37.22;96098.03;4982019;28;20046;-63
2021/05/15 07:09:10;;;;;;;1.75;0.50;;;;;;;20.62;34.95;96094.72;4974990;28;20060;-61
2021/05/15 07:11:36;;;;;;;3.58;0.60;;;;;;;20.43;35.54;96093.69;4978771;28;20148;-60
2021/05/15 07:14:02;;;;;;;1.58;0.60;;;;;;;21.39;33.80;96080.53;4978256;28;20046;-63
2021/05/15 07:16:27;;;;;;;2.08;0.38;;;;;;;21.21;33.96;96085.94;4977947;28;20038;-59
2021/05/15 07:18:52;;;;;;;1.70;0.80;;;;;;;20.41;36.22;96081.47;4980771;28;20049;-60
2021/05/15 07:21:18;;;;;;;0.50;0.40;;;;;;;20.69;35.68;96081.78;4975039;28;20141;-60
2021/05/15 07:23:43;;;;;;;4.35;0.60;;;;;;;19.68;36.96;96077.34;4980681;28;20426;-61
2021/05/15 07:26:10;;;;;;;1.10;0.50;;;;;;;19.28;37.97;96068.56;4975882;28;20061;-62
2021/05/15 07:28:36;;;;;;;1.88;0.55;;;;;;;19.17;37.23;96077.19;4977472;28;20050;-63
2021/05/15 07:31:02;;;;;;;2.63;0.60;;;;;;;19.76;37.17;96075.13;4978590;28;20058;-67
2021/05/15 07:33:28;;;;;;;1.88;0.40;;;;;;;19.79;37.24;96073.47;4975124;28;20042;-61
2021/05/15 07:35:53;;;;;;;4.20;0.60;;;;;;;19.54;37.24;96069.41;4983771;28;20527;-60
2021/05/15 07:38:21;;;;;;;1.30;0.50;;;;;;;19.66;37.78;96067.88;4979143;28;20046;-64
2021/05/15 07:40:46;;;;;;;1.63;0.80;;;;;;;21.00;34.34;96057.66;4986862;28;20050;-61
2021/05/15 07:43:12;;;;;;;2.55;0.63;;;;;;;21.03;34.97;96057.97;4979528;28;20042;-63
2021/05/15 07:45:37;;;;;;;2.60;0.80;;;;;;;21.22;33.14;96050.56;4982489;28;20136;-60
2021/05/15 07:48:03;;;;;;;1.95;0.50;;;;;;;19.95;36.21;96053.94;4982298;28;20076;-67
2021/05/15 07:50:29;;;;;;;2.67;0.60;;;;;;;20.35;35.79;96047.91;4978604;28;20049;-63
2021/05/15 07:52:55;;;;;;;2.13;0.60;;;;;;;20.49;34.84;96046.66;4984490;28;20039;-62
2021/05/15 07:55:21;;;;;;;3.53;0.50;;;;;;;21.01;34.22;96041.72;4977063;28;20050;-62
2021/05/15 07:57:46;;;;;;;3.00;0.65;;;;;;;22.25;31.85;96036.69;4984416;28;20100;-62
2021/05/15 08:00:14;;;;;;;1.95;0.43;;;;;;;21.07;33.48;96047.47;4981541;28;20539;-63
2021/05/15 08:02:39;;;;;;;0.65;0.35;;;;;;;21.46;32.47;96036.97;4986102;28;20503;-62
2021/05/15 08:05:06;;;;;;;1.60;0.60;;;;;;;22.10;31.60;96030.91;4985234;28;20042;-67
2021/05/15 08:07:31;;;;;;;1.83;0.80;;;;;;;22.96;29.91;96024.59;4989140;28;20046;-64
2021/05/15 08:09:57;;;;;;;2.15;0.52;;;;;;;22.87;30.59;96025.34;4989096;28;20042;-63
2021/05/15 08:12:22;;;;;;;1.40;0.50;;;;;;;22.22;31.35;96032.03;4984595;28;20054;-63
2021/05/15 08:14:48;;;;;;;2.42;0.40;;;;;;;22.19;30.62;96025.38;4988800;28;20495;-63
2021/05/15 08:17:13;;;;;;;1.70;0.57;;;;;;;21.08;32.54;96032.34;4979548;28;20065;-63
2021/05/15 08:19:39;;;;;;;0.60;0.40;;;;;;;21.06;33.83;96029.25;4981506;28;20050;-62
2021/05/15 08:22:05;;;;;;;1.70;0.60;;;;;;;21.87;32.14;96029.44;4978387;28;20547;-70
2021/05/15 08:24:30;;;;;;;1.35;0.50;;;;;;;20.91;34.38;96031.75;4975936;28;20051;-63
2021/05/15 08:26:56;;;;;;;1.55;0.57;;;;;;;20.31;34.08;96027.78;4983799;28;20522;-63
2021/05/15 08:29:22;;;;;;;1.55;0.50;;;;;;;21.06;33.36;96024.44;4977112;28;20231;-62
2021/05/15 08:31:48;;;;;;;1.75;0.50;;;;;;;21.34;32.99;96019.84;4983664;28;20070;-59
2021/05/15 08:34:13;;;;;;;2.22;0.60;;;;;;;21.08;32.82;96021.22;4977943;28;20511;-63
2021/05/15 08:36:39;;;;;;;0.82;0.47;;;;;;;20.37;33.96;96017.63;4976937;28;20044;-60
2021/05/15 08:39:06;;;;;;;3.25;0.55;;;;;;;20.28;33.94;96016.78;4978241;28;20038;-66
2021/05/15 08:41:32;;;;;;;2.58;0.93;;;;;;;19.26;36.17;96026.59;4983500;28;20085;-61
2021/05/15 08:44:02;;;;;;;2.47;0.60;;;;;;;19.67;35.54;96016.66;4981934;28;20042;-62
2021/05/15 08:46:28;;;;;;;2.60;0.55;;;;;;;21.37;32.24;96007.00;4978132;28;20053;-62
2021/05/15 08:48:57;;;;;;;1.77;0.50;;;;;;;20.76;32.57;96012.78;4982265;28;20093;-60
2021/05/15 08:51:24;;;;;;;2.00;0.60;;;;;;;21.12;32.23;96002.34;4974696;28;20046;-62
2021/05/15 08:53:49;;;;;;;1.23;0.30;;;;;;;21.02;32.46;96000.75;4981418;28;20073;-61
2021/05/15 08:56:15;;;;;;;1.23;0.40;;;;;;;20.95;32.48;95999.78;4978175;28;20112;-62
2021/05/15 08:58:41;;;;;;;1.95;0.50;;;;;;;21.37;32.21;96002.22;4983428;28;20056;-64
2021/05/15 09:01:11;;;;;;;1.33;0.45;;;;;;;20.85;33.61;95995.38;4976302;28;20419;-65
2021/05/15 09:03:37;;;;;;;1.10;0.30;;;;;;;21.26;33.25;95987.91;4982572;28;20046;-62
2021/05/15 09:06:02;;;;;;;2.10;0.43;;;;;;;21.89;32.33;95987.94;4977826;28;20430;-65
2021/05/15 09:08:28;;;;;;;1.90;0.50;;;;;;;21.30;32.69;95987.78;4979175;28;20062;-61
2021/05/15 09:10:53;;;;;;;2.35;0.73;;;;;;;21.55;31.76;95979.28;4979302;28;20038;-64
2021/05/15 09:13:21;;;;;;;1.23;0.30;;;;;;;20.83;32.77;95972.00;4975489;28;20176;-62
2021/05/15 09:15:49;;;;;;;1.60;0.70;;;;;;;20.21;32.65;95978.84;4982615;28;20078;-64
2021/05/15 09:18:17;;;;;;;2.40;0.65;;;;;;;20.38;33.37;95973.91;4976323;28;20136;-65
2021/05/15 09:20:44;;;;;;;0.98;0.43;;;;;;;19.45;35.22;95980.44;4980818;28;20046;-64
2021/05/15 09:23:21;;;;;;;2.28;0.60;;;;;;;19.84;34.02;95973.69;4973037;28;20104;-64
2021/05/15 09:26:04;;;;;;;2.05;0.75;;;;;;;19.94;34.29;95968.22;4982093;28;20065;-60
2021/05/15 09:28:52;;;;;;;1.95;0.50;;;;;;;20.32;32.55;95961.81;4977630;28;20163;-62
2021/05/15 09:31:30;;;;;;;2.42;0.30;;;;;;;20.09;33.84;95965.75;4976772;28;20121;-63
2021/05/15 09:34:07;;;;;;;2.35;0.93;;;;;;;19.65;33.67;95958.00;4983549;28;20073;-61
2021/05/15 09:36:37;;;;;;;0.77;0.40;;;;;;;18.99;35.16;95969.44;4976821;28;20108;-62
2021/05/15 09:39:03;;;;;;;2.20;0.75;;;;;;;19.55;35.41;95956.31;4978650;28;20061;-72
2021/05/15 09:41:49;;;;;;;2.88;0.60;;;;;;;19.82;34.17;95953.88;4979621;28;20046;-59
2021/05/15 09:44:26;;;;;;;3.20;0.50;;;;;;;19.78;33.90;95952.47;4977665;28;20375;-65
2021/05/15 09:46:53;;;;;;;10.90;6.07;;;;;;;20.17;31.99;95942.06;4979696;28;20448;-65
2021/05/15 09:49:22;;;;;;;2.17;0.70;;;;;;;19.98;32.83;95933.53;4982081;28;20503;-58
2021/05/15 09:51:50;;;;;;;1.63;0.47;;;;;;;19.99;33.08;95934.31;4981674;28;20046;-61
2021/05/15 09:54:17;;;;;;;0.85;0.50;;;;;;;20.71;31.65;95934.66;4976767;28;20554;-63
2021/05/15 09:56:53;;;;;;;11.32;6.55;;;;;;;20.31;33.34;95932.44;4982390;28;20050;-61
2021/05/15 09:59:25;;;;;;;0.98;0.40;;;;;;;20.84;31.94;95927.03;4977963;28;20807;-60
2021/05/15 10:01:55;;;;;;;2.15;0.57;;;;;;;20.55;32.56;95921.69;4979573;28;20085;-60
2021/05/15 10:04:26;;;;;;;2.35;0.30;;;;;;;21.64;30.68;95908.09;4976847;28;20046;-62
2021/05/15 10:06:51;;;;;;;1.42;0.60;;;;;;;20.98;31.28;95912.56;4981126;28;20034;-64
2021/05/15 10:09:34;;;;;;;2.80;0.50;;;;;;;20.86;31.05;95912.66;4976698;28;20057;-61
2021/05/15 10:12:01;;;;;;;1.83;0.40;;;;;;;19.23;32.85;95906.13;4982176;28;20034;-59
2021/05/15 10:14:27;;;;;;;2.08;0.55;;;;;;;20.21;31.87;95898.22;4978922;28;20078;-61
2021/05/15 10:16:53;;;;;;;2.05;0.50;;;;;;;19.61;31.88;95904.56;4978495;28;20046;-63
2021/05/15 10:19:20;;;;;;;1.45;0.50;;;;;;;19.71;31.52;95911.75;4987100;28;20121;-62
2021/05/15 10:21:46;;;;;;;1.00;0.30;;;;;;;20.49;30.18;95899.25;4988023;28;20046;-63
2021/05/15 10:24:21;;;;;;;0.88;0.55;;;;;;;18.97;32.68;95898.97;4977418;28;20047;-62
2021/05/15 10:26:59;;;;;;;1.40;0.35;;;;;;;19.60;32.45;95880.78;4982644;28;20066;-62
2021/05/15 10:29:41;;;;;;;1.08;0.50;;;;;;;20.06;32.03;95881.28;4991937;28;20098;-61
2021/05/15 10:32:21;;;;;;;0.68;0.32;;;;;;;20.17;32.12;95875.34;4981919;28;20108;-62
2021/05/15 10:34:47;;;;;;;;;;;;;;;20.15;32.07;95861.09;4984279;28;20038;-61
2021/05/15 10:37:20;;;;;;;2.47;0.57;;;;;;;20.40;30.84;95866.56;4977403;28;19929;-62
2021/05/15 10:39:48;;;;;;;1.55;0.40;;;;;;;20.43;32.17;95862.88;4982453;28;20096;-62
2021/05/15 10:42:14;;;;;;;0.95;0.40;;;;;;;19.18;32.29;95865.03;4976753;28;20038;-61
2021/05/15 10:44:44;;;;;;;2.65;1.10;;;;;;;19.39;32.82;95862.78;4980707;28;20038;-62
2021/05/15 10:47:10;;;;;;;3.35;0.77;;;;;;;19.80;32.44;95858.31;4977206;28;20807;-62
2021/05/15 10:49:36;;;;;;;2.17;0.60;;;;;;;19.15;32.56;95854.03;4981047;28;20129;-62
2021/05/15 10:52:16;;;;;;;0.80;0.40;;;;;;;19.92;32.45;95854.72;4981442;28;20073;-62
2021/05/15 10:54:48;;;;;;;1.27;0.50;;;;;;;20.31;31.63;95840.69;4980652;28;20034;-61
2021/05/15 10:57:26;;;;;;;2.05;0.90;;;;;;;20.54;31.20;95839.47;4971845;28;20448;-63
2021/05/15 11:00:00;;;;;;;2.88;0.45;;;;;;;20.88;31.40;95833.03;4982408;28;20050;-62
2021/05/15 11:02:39;;;;;;;2.95;0.43;;;;;;;20.87;31.36;95834.28;4970820;28;20054;-62
2021/05/15 11:05:18;;;;;;;2.42;0.60;;;;;;;20.18;31.91;95833.16;4968551;28;20050;-62
2021/05/15 11:07:43;;;;;;;1.50;0.40;;;;;;;20.40;30.64;95833.19;4981096;28;20043;-61
2021/05/15 11:10:16;;;;;;;1.77;0.65;;;;;;;20.82;30.35;95823.75;4978380;28;20038;-62
2021/05/15 11:12:44;;;;;;;0.82;0.50;;;;;;;18.66;34.78;95819.78;4981237;28;20073;-63
2021/05/15 11:15:12;;;;;;;1.05;0.40;;;;;;;18.83;33.38;95819.72;4975536;28;20727;-63
2021/05/15 11:17:38;;;;;;;1.42;0.50;;;;;;;19.19;33.51;95813.06;4981339;28;20064;-61
2021/05/15 11:20:12;;;;;;;0.88;0.47;;;;;;;19.51;32.21;95806.47;4976906;28;20046;-63
2021/05/15 11:22:48;;;;;;;0.55;0.40;;;;;;;18.93;32.38;95810.28;4976374;28;20062;-62
2021/05/15 11:25:13;;;;;;;3.35;0.75;;;;;;;19.77;32.39;95796.09;4975874;28;20042;-64
2021/05/15 11:27:48;;;;;;;0.52;0.40;;;;;;;20.09;31.46;95799.75;4981354;28;20121;-62
2021/05/15 11:30:16;;;;;;;0.45;0.40;;;;;;;19.77;30.27;95790.53;4977621;28;20515;-63
2021/05/15 11:32:54;;;;;;;0.85;0.35;;;;;;;20.14;29.88;95781.72;4979788;28;20113;-62
2021/05/15 11:35:19;;;;;;;1.15;0.63;;;;;;;20.17;32.93;95770.47;4974778;28;20451;-62
2021/05/15 11:37:45;;;;;;;2.63;0.90;;;;;;;19.42;34.79;95775.81;4979662;28;20042;-63